sensor_id;sensor_type;location;lat;lon;timestamp;temperature;humidity
17080;DHT22;8655;57.106;-2.088;2022-07-18T00:02:18;22.70;63.80
17080;DHT22;8655;57.106;-2.088;2022-07-18T00:04:44;22.70;63.80
17080;DHT22;8655;57.106;-2.088;2022-07-18T00:07:10;22.70;63.80
17080;DHT22;8655;57.106;-2.088;2022-07-18T00:09:37;22.60;63.70
17080;DHT22;8655;57.106;-2.088;2022-07-18T00:12:05;22.70;63.80
17080;DHT22;8655;57.106;-2.088;2022-07-18T00:14:31;22.70;63.80
17080;DHT22;8655;57.106;-2.088;2022-07-18T00:16:57;22.70;63.80
17080;DHT22;8655;57.106;-2.088;2022-07-18T00:19:23;22.70;63.80
17080;DHT22;8655;57.106;-2.088;2022-07-18T00:21:49;22.70;63.70
17080;DHT22;8655;57.106;-2.088;2022-07-18T00:24:15;22.60;63.60
17080;DHT22;8655;57.106;-2.088;2022-07-18T00:26:41;22.70;63.70
17080;DHT22;8655;57.106;-2.088;2022-07-18T00:29:06;22.70;63.80
17080;DHT22;8655;57.106;-2.088;2022-07-18T00:31:32;22.60;63.60
17080;DHT22;8655;57.106;-2.088;2022-07-18T00:33:58;22.60;63.70
17080;DHT22;8655;57.106;-2.088;2022-07-18T00:36:24;22.60;63.70
17080;DHT22;8655;57.106;-2.088;2022-07-18T00:38:49;22.60;63.60
17080;DHT22;8655;57.106;-2.088;2022-07-18T00:41:16;22.60;63.60
17080;DHT22;8655;57.106;-2.088;2022-07-18T00:43:42;22.60;63.70
17080;DHT22;8655;57.106;-2.088;2022-07-18T00:46:08;22.70;63.70
17080;DHT22;8655;57.106;-2.088;2022-07-18T00:48:34;22.60;63.60
17080;DHT22;8655;57.106;-2.088;2022-07-18T00:51:00;22.70;63.70
17080;DHT22;8655;57.106;-2.088;2022-07-18T00:53:25;22.70;63.70
17080;DHT22;8655;57.106;-2.088;2022-07-18T00:55:51;22.70;63.70
17080;DHT22;8655;57.106;-2.088;2022-07-18T00:58:18;22.70;63.70
17080;DHT22;8655;57.106;-2.088;2022-07-18T01:00:44;22.60;63.60
17080;DHT22;8655;57.106;-2.088;2022-07-18T01:03:30;22.70;63.70
17080;DHT22;8655;57.106;-2.088;2022-07-18T01:05:55;22.70;63.70
17080;DHT22;8655;57.106;-2.088;2022-07-18T01:08:21;22.60;63.60
17080;DHT22;8655;57.106;-2.088;2022-07-18T01:10:47;22.60;63.60
17080;DHT22;8655;57.106;-2.088;2022-07-18T01:13:13;22.60;63.60
17080;DHT22;8655;57.106;-2.088;2022-07-18T01:15:39;22.60;63.60
17080;DHT22;8655;57.106;-2.088;2022-07-18T01:18:05;22.60;63.60
17080;DHT22;8655;57.106;-2.088;2022-07-18T01:20:31;22.60;63.60
17080;DHT22;8655;57.106;-2.088;2022-07-18T01:22:58;22.60;63.60
17080;DHT22;8655;57.106;-2.088;2022-07-18T01:25:24;22.60;63.60
17080;DHT22;8655;57.106;-2.088;2022-07-18T01:27:50;22.60;63.60
17080;DHT22;8655;57.106;-2.088;2022-07-18T01:30:16;22.60;63.60
17080;DHT22;8655;57.106;-2.088;2022-07-18T01:32:43;22.60;63.60
17080;DHT22;8655;57.106;-2.088;2022-07-18T01:35:09;22.60;63.60
17080;DHT22;8655;57.106;-2.088;2022-07-18T01:37:35;22.60;63.60
17080;DHT22;8655;57.106;-2.088;2022-07-18T01:40:03;22.60;63.60
17080;DHT22;8655;57.106;-2.088;2022-07-18T01:42:31;22.60;63.60
17080;DHT22;8655;57.106;-2.088;2022-07-18T01:44:57;22.60;63.60
17080;DHT22;8655;57.106;-2.088;2022-07-18T01:47:23;22.60;63.60
17080;DHT22;8655;57.106;-2.088;2022-07-18T01:49:48;22.60;63.50
17080;DHT22;8655;57.106;-2.088;2022-07-18T01:52:14;22.60;63.60
17080;DHT22;8655;57.106;-2.088;2022-07-18T01:54:40;22.60;63.60
17080;DHT22;8655;57.106;-2.088;2022-07-18T01:57:06;22.60;63.60
17080;DHT22;8655;57.106;-2.088;2022-07-18T01:59:32;22.60;63.60
17080;DHT22;8655;57.106;-2.088;2022-07-18T02:01:58;22.60;63.50
17080;DHT22;8655;57.106;-2.088;2022-07-18T02:04:24;22.60;63.50
17080;DHT22;8655;57.106;-2.088;2022-07-18T02:07:10;22.60;63.60
17080;DHT22;8655;57.106;-2.088;2022-07-18T02:09:36;22.60;63.50
17080;DHT22;8655;57.106;-2.088;2022-07-18T02:12:02;22.60;63.50
17080;DHT22;8655;57.106;-2.088;2022-07-18T02:14:28;22.60;63.50
17080;DHT22;8655;57.106;-2.088;2022-07-18T02:16:54;22.60;63.50
17080;DHT22;8655;57.106;-2.088;2022-07-18T02:19:20;22.60;63.50
17080;DHT22;8655;57.106;-2.088;2022-07-18T02:21:45;22.60;63.50
17080;DHT22;8655;57.106;-2.088;2022-07-18T02:24:11;22.60;63.50
17080;DHT22;8655;57.106;-2.088;2022-07-18T02:26:37;22.60;63.50
17080;DHT22;8655;57.106;-2.088;2022-07-18T02:29:03;22.60;63.50
17080;DHT22;8655;57.106;-2.088;2022-07-18T02:31:28;22.60;63.50
17080;DHT22;8655;57.106;-2.088;2022-07-18T02:33:54;22.60;63.50
17080;DHT22;8655;57.106;-2.088;2022-07-18T02:36:20;22.60;63.50
17080;DHT22;8655;57.106;-2.088;2022-07-18T02:38:45;22.60;63.50
17080;DHT22;8655;57.106;-2.088;2022-07-18T02:41:11;22.60;63.50
17080;DHT22;8655;57.106;-2.088;2022-07-18T02:43:37;22.60;63.50
17080;DHT22;8655;57.106;-2.088;2022-07-18T02:46:03;22.60;63.50
17080;DHT22;8655;57.106;-2.088;2022-07-18T02:48:29;22.60;63.50
17080;DHT22;8655;57.106;-2.088;2022-07-18T02:50:54;22.60;63.50
17080;DHT22;8655;57.106;-2.088;2022-07-18T02:53:20;22.60;63.50
17080;DHT22;8655;57.106;-2.088;2022-07-18T02:55:49;22.60;63.50
17080;DHT22;8655;57.106;-2.088;2022-07-18T02:58:16;22.60;63.50
17080;DHT22;8655;57.106;-2.088;2022-07-18T03:00:42;22.60;63.50
17080;DHT22;8655;57.106;-2.088;2022-07-18T03:03:07;22.60;63.50
17080;DHT22;8655;57.106;-2.088;2022-07-18T03:05:33;22.60;63.50
17080;DHT22;8655;57.106;-2.088;2022-07-18T03:07:59;22.60;63.50
17080;DHT22;8655;57.106;-2.088;2022-07-18T03:10:25;22.60;63.50
17080;DHT22;8655;57.106;-2.088;2022-07-18T03:12:50;22.60;63.50
17080;DHT22;8655;57.106;-2.088;2022-07-18T03:15:16;22.60;63.50
17080;DHT22;8655;57.106;-2.088;2022-07-18T03:17:42;22.60;63.50
17080;DHT22;8655;57.106;-2.088;2022-07-18T03:20:08;22.60;63.50
17080;DHT22;8655;57.106;-2.088;2022-07-18T03:22:35;22.60;64.20
17080;DHT22;8655;57.106;-2.088;2022-07-18T03:25:01;22.60;63.50
17080;DHT22;8655;57.106;-2.088;2022-07-18T03:27:26;22.60;63.50
17080;DHT22;8655;57.106;-2.088;2022-07-18T03:29:52;22.60;63.50
17080;DHT22;8655;57.106;-2.088;2022-07-18T03:32:18;22.60;63.50
17080;DHT22;8655;57.106;-2.088;2022-07-18T03:34:44;22.60;63.50
17080;DHT22;8655;57.106;-2.088;2022-07-18T03:37:10;22.60;63.50
17080;DHT22;8655;57.106;-2.088;2022-07-18T03:39:35;22.60;64.20
17080;DHT22;8655;57.106;-2.088;2022-07-18T03:42:01;22.60;63.50
17080;DHT22;8655;57.106;-2.088;2022-07-18T03:44:27;22.60;63.50
17080;DHT22;8655;57.106;-2.088;2022-07-18T03:46:53;22.50;63.40
17080;DHT22;8655;57.106;-2.088;2022-07-18T03:49:19;22.60;63.50
17080;DHT22;8655;57.106;-2.088;2022-07-18T03:51:45;22.50;63.40
17080;DHT22;8655;57.106;-2.088;2022-07-18T03:54:11;22.50;63.40
17080;DHT22;8655;57.106;-2.088;2022-07-18T03:56:38;22.50;63.40
17080;DHT22;8655;57.106;-2.088;2022-07-18T03:59:04;22.60;63.50
17080;DHT22;8655;57.106;-2.088;2022-07-18T04:01:29;22.50;63.40
17080;DHT22;8655;57.106;-2.088;2022-07-18T04:03:55;22.50;63.40
17080;DHT22;8655;57.106;-2.088;2022-07-18T04:06:21;22.50;63.40
17080;DHT22;8655;57.106;-2.088;2022-07-18T04:08:47;22.60;63.50
17080;DHT22;8655;57.106;-2.088;2022-07-18T04:11:12;22.50;63.40
17080;DHT22;8655;57.106;-2.088;2022-07-18T04:13:38;22.60;63.50
17080;DHT22;8655;57.106;-2.088;2022-07-18T04:16:04;22.50;63.40
17080;DHT22;8655;57.106;-2.088;2022-07-18T04:18:30;22.60;63.50
17080;DHT22;8655;57.106;-2.088;2022-07-18T04:20:56;22.60;63.50
17080;DHT22;8655;57.106;-2.088;2022-07-18T04:23:21;22.50;63.30
17080;DHT22;8655;57.106;-2.088;2022-07-18T04:25:47;22.50;63.40
17080;DHT22;8655;57.106;-2.088;2022-07-18T04:28:13;22.50;63.30
17080;DHT22;8655;57.106;-2.088;2022-07-18T04:30:41;22.50;63.30
17080;DHT22;8655;57.106;-2.088;2022-07-18T04:33:08;22.50;63.30
17080;DHT22;8655;57.106;-2.088;2022-07-18T04:35:35;22.50;63.30
17080;DHT22;8655;57.106;-2.088;2022-07-18T04:38:05;22.50;63.30
17080;DHT22;8655;57.106;-2.088;2022-07-18T04:40:31;22.50;63.30
17080;DHT22;8655;57.106;-2.088;2022-07-18T04:42:57;22.50;63.30
17080;DHT22;8655;57.106;-2.088;2022-07-18T04:45:23;22.50;63.30
17080;DHT22;8655;57.106;-2.088;2022-07-18T04:47:50;22.50;63.30
17080;DHT22;8655;57.106;-2.088;2022-07-18T04:50:16;22.50;63.30
17080;DHT22;8655;57.106;-2.088;2022-07-18T04:52:43;22.50;63.30
17080;DHT22;8655;57.106;-2.088;2022-07-18T04:55:11;22.50;63.30
17080;DHT22;8655;57.106;-2.088;2022-07-18T04:57:38;22.50;63.30
17080;DHT22;8655;57.106;-2.088;2022-07-18T05:00:09;22.50;63.30
17080;DHT22;8655;57.106;-2.088;2022-07-18T05:02:42;22.50;63.30
17080;DHT22;8655;57.106;-2.088;2022-07-18T05:05:08;22.50;63.30
17080;DHT22;8655;57.106;-2.088;2022-07-18T05:07:35;22.50;63.30
17080;DHT22;8655;57.106;-2.088;2022-07-18T05:10:01;22.50;63.30
17080;DHT22;8655;57.106;-2.088;2022-07-18T05:12:29;22.50;63.30
17080;DHT22;8655;57.106;-2.088;2022-07-18T05:14:55;22.50;63.30
17080;DHT22;8655;57.106;-2.088;2022-07-18T05:17:21;22.50;63.30
17080;DHT22;8655;57.106;-2.088;2022-07-18T05:19:46;22.50;63.30
17080;DHT22;8655;57.106;-2.088;2022-07-18T05:22:12;22.50;63.30
17080;DHT22;8655;57.106;-2.088;2022-07-18T05:24:38;22.50;63.30
17080;DHT22;8655;57.106;-2.088;2022-07-18T05:27:04;22.50;63.30
17080;DHT22;8655;57.106;-2.088;2022-07-18T05:29:29;22.50;63.30
17080;DHT22;8655;57.106;-2.088;2022-07-18T05:31:56;22.50;63.30
17080;DHT22;8655;57.106;-2.088;2022-07-18T05:34:21;22.50;63.30
17080;DHT22;8655;57.106;-2.088;2022-07-18T05:36:47;22.50;63.30
17080;DHT22;8655;57.106;-2.088;2022-07-18T05:39:13;22.50;63.30
17080;DHT22;8655;57.106;-2.088;2022-07-18T05:41:39;22.50;63.30
17080;DHT22;8655;57.106;-2.088;2022-07-18T05:44:04;22.50;63.30
17080;DHT22;8655;57.106;-2.088;2022-07-18T05:46:30;22.50;63.30
17080;DHT22;8655;57.106;-2.088;2022-07-18T05:48:56;22.50;63.30
17080;DHT22;8655;57.106;-2.088;2022-07-18T05:51:22;22.50;63.30
17080;DHT22;8655;57.106;-2.088;2022-07-18T05:53:48;22.50;63.30
17080;DHT22;8655;57.106;-2.088;2022-07-18T05:56:14;22.50;63.30
17080;DHT22;8655;57.106;-2.088;2022-07-18T05:58:40;22.50;63.30
17080;DHT22;8655;57.106;-2.088;2022-07-18T06:01:07;22.50;63.30
17080;DHT22;8655;57.106;-2.088;2022-07-18T06:03:32;22.50;63.30
17080;DHT22;8655;57.106;-2.088;2022-07-18T06:05:58;22.50;63.30
17080;DHT22;8655;57.106;-2.088;2022-07-18T06:08:24;22.50;63.30
17080;DHT22;8655;57.106;-2.088;2022-07-18T06:10:50;22.50;63.30
17080;DHT22;8655;57.106;-2.088;2022-07-18T06:13:16;22.50;63.20
17080;DHT22;8655;57.106;-2.088;2022-07-18T06:15:41;22.50;63.30
17080;DHT22;8655;57.106;-2.088;2022-07-18T06:18:07;22.50;63.30
17080;DHT22;8655;57.106;-2.088;2022-07-18T06:20:33;22.50;63.30
17080;DHT22;8655;57.106;-2.088;2022-07-18T06:22:59;22.50;63.20
17080;DHT22;8655;57.106;-2.088;2022-07-18T06:25:25;22.50;63.20
17080;DHT22;8655;57.106;-2.088;2022-07-18T06:27:51;22.50;63.30
17080;DHT22;8655;57.106;-2.088;2022-07-18T06:30:17;22.50;63.20
17080;DHT22;8655;57.106;-2.088;2022-07-18T06:32:42;22.50;63.20
17080;DHT22;8655;57.106;-2.088;2022-07-18T06:35:09;22.50;63.30
17080;DHT22;8655;57.106;-2.088;2022-07-18T06:37:35;22.50;63.20
17080;DHT22;8655;57.106;-2.088;2022-07-18T06:40:00;22.50;63.20
17080;DHT22;8655;57.106;-2.088;2022-07-18T06:42:26;22.50;63.20
17080;DHT22;8655;57.106;-2.088;2022-07-18T06:44:52;22.50;63.30
17080;DHT22;8655;57.106;-2.088;2022-07-18T06:47:18;22.50;63.20
17080;DHT22;8655;57.106;-2.088;2022-07-18T06:49:43;22.50;63.30
17080;DHT22;8655;57.106;-2.088;2022-07-18T06:52:09;22.50;63.30
17080;DHT22;8655;57.106;-2.088;2022-07-18T06:54:37;22.50;63.20
17080;DHT22;8655;57.106;-2.088;2022-07-18T06:57:05;22.50;63.20
17080;DHT22;8655;57.106;-2.088;2022-07-18T06:59:33;22.50;63.30
17080;DHT22;8655;57.106;-2.088;2022-07-18T07:01:59;22.50;63.20
17080;DHT22;8655;57.106;-2.088;2022-07-18T07:04:25;22.50;63.20
17080;DHT22;8655;57.106;-2.088;2022-07-18T07:06:51;22.50;63.20
17080;DHT22;8655;57.106;-2.088;2022-07-18T07:09:16;22.50;63.20
17080;DHT22;8655;57.106;-2.088;2022-07-18T07:11:42;22.50;63.20
17080;DHT22;8655;57.106;-2.088;2022-07-18T07:14:08;22.50;63.20
17080;DHT22;8655;57.106;-2.088;2022-07-18T07:16:34;22.50;63.20
17080;DHT22;8655;57.106;-2.088;2022-07-18T07:18:59;22.50;63.20
17080;DHT22;8655;57.106;-2.088;2022-07-18T07:21:25;22.50;63.20
17080;DHT22;8655;57.106;-2.088;2022-07-18T07:23:51;22.50;63.20
17080;DHT22;8655;57.106;-2.088;2022-07-18T07:26:17;22.50;63.20
17080;DHT22;8655;57.106;-2.088;2022-07-18T07:28:43;22.50;63.20
17080;DHT22;8655;57.106;-2.088;2022-07-18T07:31:08;22.50;63.10
17080;DHT22;8655;57.106;-2.088;2022-07-18T07:33:34;22.50;63.10
17080;DHT22;8655;57.106;-2.088;2022-07-18T07:36:01;22.50;63.10
17080;DHT22;8655;57.106;-2.088;2022-07-18T07:38:28;22.50;63.10
17080;DHT22;8655;57.106;-2.088;2022-07-18T07:40:55;22.50;63.20
17080;DHT22;8655;57.106;-2.088;2022-07-18T07:43:21;22.50;63.20
17080;DHT22;8655;57.106;-2.088;2022-07-18T07:45:48;22.50;63.10
17080;DHT22;8655;57.106;-2.088;2022-07-18T07:48:16;22.50;63.10
17080;DHT22;8655;57.106;-2.088;2022-07-18T07:50:42;22.50;63.20
17080;DHT22;8655;57.106;-2.088;2022-07-18T07:53:08;22.50;63.10
17080;DHT22;8655;57.106;-2.088;2022-07-18T07:55:34;22.50;63.10
17080;DHT22;8655;57.106;-2.088;2022-07-18T07:58:00;22.50;63.10
17080;DHT22;8655;57.106;-2.088;2022-07-18T08:00:26;22.50;63.10
17080;DHT22;8655;57.106;-2.088;2022-07-18T08:03:03;22.60;63.20
17080;DHT22;8655;57.106;-2.088;2022-07-18T08:05:32;22.60;63.20
17080;DHT22;8655;57.106;-2.088;2022-07-18T08:07:59;22.60;63.50
17080;DHT22;8655;57.106;-2.088;2022-07-18T08:10:27;22.60;63.20
17080;DHT22;8655;57.106;-2.088;2022-07-18T08:12:53;22.60;63.20
17080;DHT22;8655;57.106;-2.088;2022-07-18T08:15:19;22.60;63.20
17080;DHT22;8655;57.106;-2.088;2022-07-18T08:17:44;22.60;63.20
17080;DHT22;8655;57.106;-2.088;2022-07-18T08:20:10;22.60;63.20
17080;DHT22;8655;57.106;-2.088;2022-07-18T08:22:54;22.60;63.20
17080;DHT22;8655;57.106;-2.088;2022-07-18T08:25:20;22.60;63.20
17080;DHT22;8655;57.106;-2.088;2022-07-18T08:27:46;22.60;63.20
17080;DHT22;8655;57.106;-2.088;2022-07-18T08:30:12;22.60;63.20
17080;DHT22;8655;57.106;-2.088;2022-07-18T08:32:37;22.60;63.20
17080;DHT22;8655;57.106;-2.088;2022-07-18T08:35:04;22.60;63.20
17080;DHT22;8655;57.106;-2.088;2022-07-18T08:37:29;22.60;63.20
17080;DHT22;8655;57.106;-2.088;2022-07-18T08:39:55;22.60;63.20
17080;DHT22;8655;57.106;-2.088;2022-07-18T08:42:25;22.60;63.20
17080;DHT22;8655;57.106;-2.088;2022-07-18T08:44:53;22.60;63.20
17080;DHT22;8655;57.106;-2.088;2022-07-18T08:47:20;22.60;63.20
17080;DHT22;8655;57.106;-2.088;2022-07-18T08:49:46;22.60;63.20
17080;DHT22;8655;57.106;-2.088;2022-07-18T08:52:16;22.60;63.20
17080;DHT22;8655;57.106;-2.088;2022-07-18T08:54:42;22.60;63.80
17080;DHT22;8655;57.106;-2.088;2022-07-18T08:57:09;22.60;63.10
17080;DHT22;8655;57.106;-2.088;2022-07-18T08:59:35;22.60;63.10
17080;DHT22;8655;57.106;-2.088;2022-07-18T09:02:01;22.60;63.10
17080;DHT22;8655;57.106;-2.088;2022-07-18T09:04:38;22.70;63.20
17080;DHT22;8655;57.106;-2.088;2022-07-18T09:07:05;22.70;63.20
17080;DHT22;8655;57.106;-2.088;2022-07-18T09:09:32;22.60;63.10
17080;DHT22;8655;57.106;-2.088;2022-07-18T09:12:00;22.70;63.20
17080;DHT22;8655;57.106;-2.088;2022-07-18T09:17:25;22.60;63.10
17080;DHT22;8655;57.106;-2.088;2022-07-18T09:20:12;22.70;63.20
17080;DHT22;8655;57.106;-2.088;2022-07-18T09:22:42;22.70;63.20
17080;DHT22;8655;57.106;-2.088;2022-07-18T09:25:18;22.70;63.20
17080;DHT22;8655;57.106;-2.088;2022-07-18T09:27:52;22.70;63.20
17080;DHT22;8655;57.106;-2.088;2022-07-18T09:32:51;22.70;63.20
17080;DHT22;8655;57.106;-2.088;2022-07-18T09:35:21;22.70;63.20
17080;DHT22;8655;57.106;-2.088;2022-07-18T09:40:22;22.70;63.20
17080;DHT22;8655;57.106;-2.088;2022-07-18T09:42:53;22.70;63.20
17080;DHT22;8655;57.106;-2.088;2022-07-18T09:45:27;22.70;63.20
17080;DHT22;8655;57.106;-2.088;2022-07-18T09:47:56;22.70;63.20
17080;DHT22;8655;57.106;-2.088;2022-07-18T09:50:25;22.70;63.20
17080;DHT22;8655;57.106;-2.088;2022-07-18T09:53:00;22.70;63.20
17080;DHT22;8655;57.106;-2.088;2022-07-18T09:55:26;22.70;63.20
17080;DHT22;8655;57.106;-2.088;2022-07-18T09:58:00;22.70;63.20
17080;DHT22;8655;57.106;-2.088;2022-07-18T10:00:28;22.70;63.90
17080;DHT22;8655;57.106;-2.088;2022-07-18T10:02:56;22.70;63.20
17080;DHT22;8655;57.106;-2.088;2022-07-18T10:05:28;22.70;63.30
17080;DHT22;8655;57.106;-2.088;2022-07-18T10:07:54;22.80;63.30
17080;DHT22;8655;57.106;-2.088;2022-07-18T10:10:21;22.70;63.20
17080;DHT22;8655;57.106;-2.088;2022-07-18T10:12:54;22.80;63.30
17080;DHT22;8655;57.106;-2.088;2022-07-18T10:15:25;22.80;63.30
17080;DHT22;8655;57.106;-2.088;2022-07-18T10:17:51;22.80;63.30
17080;DHT22;8655;57.106;-2.088;2022-07-18T10:20:17;22.80;63.30
17080;DHT22;8655;57.106;-2.088;2022-07-18T10:22:51;22.80;63.30
17080;DHT22;8655;57.106;-2.088;2022-07-18T10:25:22;22.80;63.30
17080;DHT22;8655;57.106;-2.088;2022-07-18T10:27:54;22.80;63.30
17080;DHT22;8655;57.106;-2.088;2022-07-18T10:30:52;22.80;63.30
17080;DHT22;8655;57.106;-2.088;2022-07-18T10:33:40;22.80;63.30
17080;DHT22;8655;57.106;-2.088;2022-07-18T10:36:07;22.90;63.40
17080;DHT22;8655;57.106;-2.088;2022-07-18T10:38:33;22.80;63.30
17080;DHT22;8655;57.106;-2.088;2022-07-18T10:41:11;22.80;63.30
17080;DHT22;8655;57.106;-2.088;2022-07-18T10:43:42;22.80;63.30
17080;DHT22;8655;57.106;-2.088;2022-07-18T10:46:09;22.90;63.40
17080;DHT22;8655;57.106;-2.088;2022-07-18T10:51:01;22.90;63.40
17080;DHT22;8655;57.106;-2.088;2022-07-18T10:53:54;22.90;63.40
17080;DHT22;8655;57.106;-2.088;2022-07-18T10:56:23;22.90;63.40
17080;DHT22;8655;57.106;-2.088;2022-07-18T10:59:23;22.90;63.50
17080;DHT22;8655;57.106;-2.088;2022-07-18T11:01:55;22.90;63.40
17080;DHT22;8655;57.106;-2.088;2022-07-18T11:04:31;22.90;63.40
17080;DHT22;8655;57.106;-2.088;2022-07-18T11:07:11;22.90;63.40
17080;DHT22;8655;57.106;-2.088;2022-07-18T11:09:39;22.90;63.40
17080;DHT22;8655;57.106;-2.088;2022-07-18T11:12:21;23.00;63.60
17080;DHT22;8655;57.106;-2.088;2022-07-18T11:15:12;22.90;63.50
17080;DHT22;8655;57.106;-2.088;2022-07-18T11:18:01;23.00;63.60
17080;DHT22;8655;57.106;-2.088;2022-07-18T11:22:53;23.00;63.60
17080;DHT22;8655;57.106;-2.088;2022-07-18T11:25:19;23.00;63.70
17080;DHT22;8655;57.106;-2.088;2022-07-18T11:27:45;23.00;63.70
17080;DHT22;8655;57.106;-2.088;2022-07-18T11:30:19;23.00;63.70
17080;DHT22;8655;57.106;-2.088;2022-07-18T11:32:44;23.00;63.70
17080;DHT22;8655;57.106;-2.088;2022-07-18T11:35:12;23.00;63.70
17080;DHT22;8655;57.106;-2.088;2022-07-18T11:37:38;23.00;63.70
17080;DHT22;8655;57.106;-2.088;2022-07-18T11:40:08;23.10;63.80
17080;DHT22;8655;57.106;-2.088;2022-07-18T11:42:38;23.10;63.80
17080;DHT22;8655;57.106;-2.088;2022-07-18T11:45:05;23.10;63.80
17080;DHT22;8655;57.106;-2.088;2022-07-18T11:47:31;23.10;63.90
17080;DHT22;8655;57.106;-2.088;2022-07-18T11:50:02;23.10;63.90
17080;DHT22;8655;57.106;-2.088;2022-07-18T11:52:28;23.10;63.90
17080;DHT22;8655;57.106;-2.088;2022-07-18T11:54:54;23.10;63.90
17080;DHT22;8655;57.106;-2.088;2022-07-18T11:57:27;23.10;63.90
17080;DHT22;8655;57.106;-2.088;2022-07-18T11:59:55;23.10;63.90
17080;DHT22;8655;57.106;-2.088;2022-07-18T12:05:32;23.10;63.90
17080;DHT22;8655;57.106;-2.088;2022-07-18T12:07:58;23.20;64.00
17080;DHT22;8655;57.106;-2.088;2022-07-18T12:10:24;23.20;64.10
17080;DHT22;8655;57.106;-2.088;2022-07-18T12:12:50;23.20;64.10
17080;DHT22;8655;57.106;-2.088;2022-07-18T12:15:16;23.20;64.10
17080;DHT22;8655;57.106;-2.088;2022-07-18T12:17:46;23.20;64.10
17080;DHT22;8655;57.106;-2.088;2022-07-18T12:20:18;23.20;64.10
17080;DHT22;8655;57.106;-2.088;2022-07-18T12:23:09;23.20;64.10
17080;DHT22;8655;57.106;-2.088;2022-07-18T12:25:43;23.20;64.10
17080;DHT22;8655;57.106;-2.088;2022-07-18T12:28:17;23.20;64.10
17080;DHT22;8655;57.106;-2.088;2022-07-18T12:30:44;23.20;64.20
17080;DHT22;8655;57.106;-2.088;2022-07-18T12:33:10;23.20;64.20
17080;DHT22;8655;57.106;-2.088;2022-07-18T12:35:36;23.20;64.20
17080;DHT22;8655;57.106;-2.088;2022-07-18T12:38:08;23.30;64.30
17080;DHT22;8655;57.106;-2.088;2022-07-18T12:43:25;23.30;64.30
17080;DHT22;8655;57.106;-2.088;2022-07-18T12:45:53;23.30;64.30
17080;DHT22;8655;57.106;-2.088;2022-07-18T12:48:19;23.30;64.30
17080;DHT22;8655;57.106;-2.088;2022-07-18T12:50:45;23.30;64.30
17080;DHT22;8655;57.106;-2.088;2022-07-18T12:53:12;23.30;64.30
17080;DHT22;8655;57.106;-2.088;2022-07-18T12:55:38;23.30;64.30
17080;DHT22;8655;57.106;-2.088;2022-07-18T12:58:05;23.30;64.30
17080;DHT22;8655;57.106;-2.088;2022-07-18T13:00:32;23.30;64.40
17080;DHT22;8655;57.106;-2.088;2022-07-18T13:02:58;23.30;64.30
17080;DHT22;8655;57.106;-2.088;2022-07-18T13:05:26;23.30;64.30
17080;DHT22;8655;57.106;-2.088;2022-07-18T13:07:52;23.40;64.50
17080;DHT22;8655;57.106;-2.088;2022-07-18T13:10:17;23.40;64.50
17080;DHT22;8655;57.106;-2.088;2022-07-18T13:12:43;23.40;64.50
17080;DHT22;8655;57.106;-2.088;2022-07-18T13:15:09;23.40;64.50
17080;DHT22;8655;57.106;-2.088;2022-07-18T13:17:35;23.40;64.50
17080;DHT22;8655;57.106;-2.088;2022-07-18T13:20:01;23.40;64.50
17080;DHT22;8655;57.106;-2.088;2022-07-18T13:22:27;23.40;64.50
17080;DHT22;8655;57.106;-2.088;2022-07-18T13:24:53;23.40;64.50
17080;DHT22;8655;57.106;-2.088;2022-07-18T13:27:18;23.40;64.50
17080;DHT22;8655;57.106;-2.088;2022-07-18T13:29:46;23.40;64.50
17080;DHT22;8655;57.106;-2.088;2022-07-18T13:32:12;23.50;64.60
17080;DHT22;8655;57.106;-2.088;2022-07-18T13:34:39;23.40;64.60
17080;DHT22;8655;57.106;-2.088;2022-07-18T13:37:05;23.50;64.70
17080;DHT22;8655;57.106;-2.088;2022-07-18T13:39:30;23.50;64.60
17080;DHT22;8655;57.106;-2.088;2022-07-18T13:41:56;23.50;64.70
17080;DHT22;8655;57.106;-2.088;2022-07-18T13:44:22;23.50;64.70
17080;DHT22;8655;57.106;-2.088;2022-07-18T13:46:47;23.50;64.70
17080;DHT22;8655;57.106;-2.088;2022-07-18T13:49:13;23.50;64.70
17080;DHT22;8655;57.106;-2.088;2022-07-18T13:51:42;23.50;64.60
17080;DHT22;8655;57.106;-2.088;2022-07-18T13:54:07;23.50;64.70
17080;DHT22;8655;57.106;-2.088;2022-07-18T13:56:33;23.50;64.70
17080;DHT22;8655;57.106;-2.088;2022-07-18T13:58:59;23.50;64.70
17080;DHT22;8655;57.106;-2.088;2022-07-18T14:01:25;23.50;64.70
17080;DHT22;8655;57.106;-2.088;2022-07-18T14:03:51;23.50;64.70
17080;DHT22;8655;57.106;-2.088;2022-07-18T14:06:17;23.50;64.70
17080;DHT22;8655;57.106;-2.088;2022-07-18T14:08:43;23.60;65.50
17080;DHT22;8655;57.106;-2.088;2022-07-18T14:11:09;23.60;64.80
17080;DHT22;8655;57.106;-2.088;2022-07-18T14:13:35;23.50;64.70
17080;DHT22;8655;57.106;-2.088;2022-07-18T14:16:01;23.60;64.80
17080;DHT22;8655;57.106;-2.088;2022-07-18T14:18:26;23.60;64.80
17080;DHT22;8655;57.106;-2.088;2022-07-18T14:20:52;23.60;64.80
17080;DHT22;8655;57.106;-2.088;2022-07-18T14:23:18;23.60;64.80
17080;DHT22;8655;57.106;-2.088;2022-07-18T14:25:44;23.60;64.80
17080;DHT22;8655;57.106;-2.088;2022-07-18T14:28:11;23.60;64.80
17080;DHT22;8655;57.106;-2.088;2022-07-18T14:30:37;23.60;64.80
17080;DHT22;8655;57.106;-2.088;2022-07-18T14:33:03;23.60;64.80
17080;DHT22;8655;57.106;-2.088;2022-07-18T14:35:28;23.70;64.90
17080;DHT22;8655;57.106;-2.088;2022-07-18T14:37:54;23.60;64.80
17080;DHT22;8655;57.106;-2.088;2022-07-18T14:40:20;23.70;64.90
17080;DHT22;8655;57.106;-2.088;2022-07-18T14:42:45;23.70;64.90
17080;DHT22;8655;57.106;-2.088;2022-07-18T14:45:11;23.70;64.90
17080;DHT22;8655;57.106;-2.088;2022-07-18T14:47:37;23.70;64.90
17080;DHT22;8655;57.106;-2.088;2022-07-18T14:50:04;23.70;64.90
17080;DHT22;8655;57.106;-2.088;2022-07-18T14:52:31;23.70;64.90
17080;DHT22;8655;57.106;-2.088;2022-07-18T14:54:56;23.70;64.90
17080;DHT22;8655;57.106;-2.088;2022-07-18T14:57:22;23.70;64.90
17080;DHT22;8655;57.106;-2.088;2022-07-18T14:59:48;23.70;64.90
17080;DHT22;8655;57.106;-2.088;2022-07-18T15:02:14;23.70;64.90
17080;DHT22;8655;57.106;-2.088;2022-07-18T15:04:40;23.70;64.90
17080;DHT22;8655;57.106;-2.088;2022-07-18T15:07:06;23.70;64.90
17080;DHT22;8655;57.106;-2.088;2022-07-18T15:09:32;23.70;64.90
17080;DHT22;8655;57.106;-2.088;2022-07-18T15:11:58;23.70;64.90
17080;DHT22;8655;57.106;-2.088;2022-07-18T15:14:23;23.70;64.90
17080;DHT22;8655;57.106;-2.088;2022-07-18T15:16:49;23.80;65.00
17080;DHT22;8655;57.106;-2.088;2022-07-18T15:19:15;23.80;65.70
17080;DHT22;8655;57.106;-2.088;2022-07-18T15:21:40;23.80;65.00
17080;DHT22;8655;57.106;-2.088;2022-07-18T15:24:06;23.70;65.00
17080;DHT22;8655;57.106;-2.088;2022-07-18T15:26:33;23.80;65.10
17080;DHT22;8655;57.106;-2.088;2022-07-18T15:29:00;23.80;65.00
17080;DHT22;8655;57.106;-2.088;2022-07-18T15:31:26;23.80;65.10
17080;DHT22;8655;57.106;-2.088;2022-07-18T15:33:51;23.80;65.10
17080;DHT22;8655;57.106;-2.088;2022-07-18T15:36:17;23.80;65.20
17080;DHT22;8655;57.106;-2.088;2022-07-18T15:38:43;23.80;65.10
17080;DHT22;8655;57.106;-2.088;2022-07-18T15:41:10;23.80;65.10
17080;DHT22;8655;57.106;-2.088;2022-07-18T15:43:37;23.80;65.10
17080;DHT22;8655;57.106;-2.088;2022-07-18T15:46:04;23.80;65.10
17080;DHT22;8655;57.106;-2.088;2022-07-18T15:48:30;23.80;65.10
17080;DHT22;8655;57.106;-2.088;2022-07-18T15:50:56;23.90;65.20